Malgrat de Mar, Spain
Current Conditions -  °F | °C
As of 4:30 AM on Sunday 25 Jan 2015 (Local Time) from LEGE Reporting Station
Clear Clear  
Wind Chill: 41°   Ceiling: Unl
Heat Index: 48°   Visibility: 6mi
Dew Point:   Wind: 20mph
Humidity: 20%   Direction: 20°NNE
Pressure: 30.06"   Gusts: NA
Location:  41.65°N, 2.74°E
Report Text: LEGE 250330Z 02017KT 310V050 CAVOK 09/M13 Q1018
Loading
Personal Weather Stations






























Interactive Weather Map New forecast layout! Learn more

10-Day Weather Forecast

Advertisements
Track Severe Weather on mobile